Time;durP1;ratioP1;P1;durP2;ratioP2;P2;SDS_P1;SDS_P2;PMS_P1;PMS_P2;Temp;Humidity;BMP_temperature;BMP_pressure;BME280_temperature;BME280_humidity;BME280_pressure;Samples;Min_cycle;Max_cycle;Signal;HPM_P1;HPM_P2
2024/04/10 00:01:06;;;;;;;4.72;3.25;;;;;;;10.27;100.00;101915.28;11280859;26;20434;-75
2024/04/10 00:06:08;;;;;;;11.32;3.72;;;;;;;10.20;100.00;101919.66;11286991;26;19995;-75
2024/04/10 00:11:08;;;;;;;6.40;4.38;;;;;;;10.07;100.00;101924.75;11286994;26;20010;-76
2024/04/10 00:16:09;;;;;;;14.55;4.60;;;;;;;9.97;100.00;101931.16;11286554;26;20068;-75
2024/04/10 00:21:09;;;;;;;12.18;4.25;;;;;;;9.83;100.00;101931.84;11287545;26;19995;-75
2024/04/10 00:26:09;;;;;;;7.68;4.05;;;;;;;9.76;100.00;101930.78;11286908;26;20043;-75
2024/04/10 00:31:10;;;;;;;22.15;4.70;;;;;;;9.69;100.00;101935.19;11284079;26;20426;-74
2024/04/10 00:36:10;;;;;;;7.55;3.60;;;;;;;9.69;100.00;101951.41;11284696;26;20031;-75
2024/04/10 00:41:11;;;;;;;20.40;3.85;;;;;;;9.75;100.00;101965.13;11284620;26;20022;-75
2024/04/10 00:46:15;;;;;;;11.43;3.70;;;;;;;9.80;100.00;101970.03;11254623;26;20067;-75
2024/04/10 00:51:18;;;;;;;8.20;4.38;;;;;;;9.71;100.00;101987.25;11257141;26;20006;-75
2024/04/10 00:56:18;;;;;;;6.55;3.90;;;;;;;9.68;100.00;101998.41;11285208;26;20006;-75
2024/04/10 01:01:19;;;;;;;11.90;3.33;;;;;;;9.68;100.00;102009.22;11283425;26;19998;-75
2024/04/10 01:06:19;;;;;;;14.52;3.65;;;;;;;9.72;100.00;102010.59;11284476;26;19999;-75
2024/04/10 01:11:20;;;;;;;17.35;5.13;;;;;;;9.61;100.00;102008.19;11282663;26;20006;-75
2024/04/10 01:16:20;;;;;;;11.98;3.60;;;;;;;9.65;100.00;102025.78;11282557;26;20003;-75
2024/04/10 01:21:20;;;;;;;20.00;4.85;;;;;;;9.68;100.00;102036.28;11292955;26;20035;-76
2024/04/10 01:26:21;;;;;;;6.60;3.60;;;;;;;9.67;100.00;102035.44;11291615;26;20341;-75
2024/04/10 01:31:21;;;;;;;14.00;5.07;;;;;;;9.71;100.00;102044.06;11290939;26;19998;-75
2024/04/10 01:36:22;;;;;;;12.32;4.55;;;;;;;9.73;100.00;102055.56;11284731;26;20027;-75
2024/04/10 01:41:22;;;;;;;8.23;3.53;;;;;;;9.72;100.00;102059.28;11252998;26;20009;-75
2024/04/10 01:46:22;;;;;;;7.07;3.85;;;;;;;9.78;100.00;102077.56;11284879;26;20009;-75
2024/04/10 01:51:23;;;;;;;10.20;4.25;;;;;;;9.82;100.00;102075.38;11253206;26;20071;-75
2024/04/10 01:56:23;;;;;;;7.57;2.53;;;;;;;9.82;100.00;102087.03;11284761;26;19998;-75
2024/04/10 02:01:24;;;;;;;16.88;4.15;;;;;;;9.66;100.00;102093.22;11286169;26;20347;-75
2024/04/10 02:06:24;;;;;;;13.52;4.75;;;;;;;9.58;100.00;102111.28;11289511;26;20047;-75
2024/04/10 02:11:36;;;;;;;18.15;4.63;;;;;;;9.45;100.00;102109.03;11291058;26;19995;-75
2024/04/10 02:16:37;;;;;;;14.90;5.13;;;;;;;9.42;100.00;102117.47;11289567;26;20019;-75
2024/04/10 02:21:38;;;;;;;15.45;5.65;;;;;;;9.39;100.00;102132.13;11288057;26;20463;-75
2024/04/10 02:26:39;;;;;;;8.65;3.22;;;;;;;9.35;100.00;102133.47;11290083;26;19999;-75
2024/04/10 02:31:39;;;;;;;21.35;4.38;;;;;;;9.40;100.00;102143.78;11289194;26;20074;-76
2024/04/10 02:36:40;;;;;;;9.95;3.47;;;;;;;9.43;100.00;102149.72;11290216;26;19999;-75
2024/04/10 02:41:40;;;;;;;16.80;3.60;;;;;;;9.46;100.00;102156.69;11285561;26;20005;-75
2024/04/10 02:46:41;;;;;;;8.07;4.07;;;;;;;9.48;100.00;102168.19;11287111;26;20063;-75
2024/04/10 02:51:41;;;;;;;17.15;3.38;;;;;;;9.45;100.00;102174.75;11288478;26;20067;-75
2024/04/10 02:56:42;;;;;;;10.25;3.28;;;;;;;9.44;100.00;102183.84;11287714;26;20327;-75
2024/04/10 03:01:42;;;;;;;8.48;2.63;;;;;;;9.41;100.00;102186.03;11288640;26;20002;-75
2024/04/10 03:06:42;;;;;;;14.77;4.35;;;;;;;9.43;100.00;102192.97;11286329;26;20032;-75
2024/04/10 03:11:43;;;;;;;26.45;5.45;;;;;;;9.46;100.00;102194.53;11286360;26;20015;-75
2024/04/10 03:16:43;;;;;;;10.07;3.72;;;;;;;9.47;100.00;102204.31;11288391;26;20023;-75
2024/04/10 03:21:44;;;;;;;13.30;4.10;;;;;;;9.42;100.00;102210.22;11287329;26;20005;-75
2024/04/10 03:26:44;;;;;;;9.85;3.20;;;;;;;9.34;100.00;102218.25;11287845;26;20095;-75
2024/04/10 03:31:44;;;;;;;13.50;3.47;;;;;;;9.23;100.00;102227.47;11288502;26;19998;-75
2024/04/10 03:36:45;;;;;;;10.45;3.92;;;;;;;9.14;100.00;102232.97;11292615;26;20006;-75
2024/04/10 03:41:45;;;;;;;9.50;2.83;;;;;;;9.07;100.00;102233.59;11293343;26;19999;-75
2024/04/10 03:46:46;;;;;;;17.40;3.85;;;;;;;8.94;100.00;102246.63;11295763;26;20347;-75
2024/04/10 03:51:46;;;;;;;11.25;3.60;;;;;;;8.70;100.00;102257.19;11294379;26;20052;-75
2024/04/10 03:56:46;;;;;;;11.25;2.28;;;;;;;8.54;100.00;102264.09;11262602;26;19999;-75
2024/04/10 04:01:47;;;;;;;18.73;4.78;;;;;;;8.40;100.00;102266.44;11295200;26;20096;-75
2024/04/10 04:06:48;;;;;;;11.95;3.08;;;;;;;8.37;100.00;102278.38;11294805;26;20015;-75
2024/04/10 04:11:48;;;;;;;10.05;4.47;;;;;;;8.52;100.00;102289.53;11262699;26;20003;-75
2024/04/10 04:16:49;;;;;;;12.07;3.40;;;;;;;8.58;100.00;102297.03;11294820;26;19995;-75
2024/04/10 04:21:50;;;;;;;10.40;3.00;;;;;;;8.39;100.00;102311.47;11232145;26;20036;-74
2024/04/10 04:26:51;;;;;;;6.82;3.63;;;;;;;8.34;100.00;102320.00;11293508;26;20427;-74
2024/04/10 04:31:51;;;;;;;20.80;3.75;;;;;;;8.26;100.00;102324.41;11288079;26;20063;-73
2024/04/10 04:36:52;;;;;;;8.25;3.50;;;;;;;8.15;100.00;102345.19;11285343;26;20007;-75
2024/04/10 04:41:52;;;;;;;15.35;4.15;;;;;;;8.11;100.00;102348.34;11285082;26;20155;-76
2024/04/10 04:46:53;;;;;;;7.10;2.47;;;;;;;8.08;100.00;102356.72;11283965;26;20002;-74
2024/04/10 04:51:53;;;;;;;15.75;3.45;;;;;;;8.24;100.00;102372.31;11286070;26;20335;-77
2024/04/10 04:56:54;;;;;;;4.25;3.28;;;;;;;8.23;100.00;102384.97;11286314;26;19998;-73
2024/04/10 05:01:54;;;;;;;9.57;3.53;;;;;;;8.21;100.00;102386.09;11254140;26;19999;-73
2024/04/10 05:06:55;;;;;;;10.95;3.47;;;;;;;8.15;100.00;102398.31;11288084;26;19999;-74
2024/04/10 05:11:55;;;;;;;12.82;3.22;;;;;;;8.08;100.00;102413.38;11282101;26;19998;-74
2024/04/10 05:16:56;;;;;;;10.85;3.33;;;;;;;7.99;100.00;102422.34;11283957;26;20014;-74
2024/04/10 05:21:56;;;;;;;17.23;2.75;;;;;;;8.00;100.00;102441.06;11281918;26;19998;-73
2024/04/10 05:26:56;;;;;;;12.55;3.40;;;;;;;7.99;100.00;102442.06;11283904;26;20459;-74
2024/04/10 05:31:58;;;;;;;9.23;2.97;;;;;;;7.98;100.00;102444.91;11281731;26;20002;-73
2024/04/10 05:36:58;;;;;;;24.10;5.65;;;;;;;8.02;100.00;102471.44;11281402;26;19990;-73
2024/04/10 05:42:05;;;;;;;10.85;3.72;;;;;;;8.12;100.00;102475.00;11284588;26;20006;-74
2024/04/10 05:47:06;;;;;;;11.75;4.65;;;;;;;8.27;100.00;102477.28;11281787;26;20063;-73
2024/04/10 05:52:06;;;;;;;8.82;3.47;;;;;;;8.44;100.00;102490.06;11251975;26;20031;-73
2024/04/10 05:57:07;;;;;;;20.45;4.75;;;;;;;9.46;100.00;102498.22;11281264;26;19994;-73
2024/04/10 06:02:07;;;;;;;14.82;3.10;;;;;;;10.41;100.00;102507.66;11251223;26;20002;-73
2024/04/10 06:07:07;;;;;;;6.78;3.38;;;;;;;11.32;100.00;102496.31;11282293;26;19999;-74
2024/04/10 06:12:08;;;;;;;9.60;3.00;;;;;;;12.05;100.00;102506.56;11281836;26;19990;-74
2024/04/10 06:17:08;;;;;;;15.43;4.40;;;;;;;12.67;100.00;102514.22;11251063;26;20068;-73
2024/04/10 06:22:09;;;;;;;20.98;4.28;;;;;;;13.19;100.00;102521.91;11282019;26;20030;-74
2024/04/10 06:27:09;;;;;;;16.70;2.88;;;;;;;13.72;100.00;102531.22;11281728;26;20027;-74
2024/04/10 06:32:11;;;;;;;13.43;3.30;;;;;;;14.08;100.00;102532.53;11282143;26;19998;-74
2024/04/10 06:37:11;;;;;;;12.05;2.78;;;;;;;14.40;100.00;102534.19;11220425;26;19986;-74
2024/04/10 06:42:12;;;;;;;6.78;2.38;;;;;;;14.79;100.00;102535.91;11278841;26;20022;-74
2024/04/10 06:47:13;;;;;;;11.57;1.65;;;;;;;15.05;100.00;102546.38;11279293;26;19998;-74
2024/04/10 06:52:13;;;;;;;8.15;3.90;;;;;;;15.64;100.00;102556.44;11281101;26;19994;-74
2024/04/10 06:57:13;;;;;;;13.63;3.25;;;;;;;15.28;100.00;102568.97;11278378;26;20064;-74
2024/04/10 07:02:14;;;;;;;9.02;4.03;;;;;;;16.83;100.00;102581.47;11281467;26;20010;-74
2024/04/10 07:07:15;;;;;;;10.32;2.83;;;;;;;15.34;100.00;102589.19;11278875;26;20419;-74
2024/04/10 07:12:15;;;;;;;2.75;2.33;;;;;;;15.51;100.00;102590.72;11286428;26;19999;-74
2024/04/10 07:17:15;;;;;;;5.90;2.33;;;;;;;15.22;100.00;102590.69;11288214;26;20437;-74
2024/04/10 07:22:16;;;;;;;13.95;3.28;;;;;;;14.52;100.00;102598.16;11287410;26;20010;-74
2024/04/10 07:27:16;;;;;;;3.25;2.25;;;;;;;16.40;100.00;102611.53;11287232;26;20344;-74
2024/04/10 07:32:16;;;;;;;12.40;2.55;;;;;;;15.38;100.00;102612.38;11285379;26;19999;-75
2024/04/10 07:37:17;;;;;;;14.80;3.17;;;;;;;14.80;100.00;102609.34;11285122;26;20042;-74
2024/04/10 07:42:18;;;;;;;2.75;2.15;;;;;;;15.04;100.00;102619.19;11255702;26;20018;-75
2024/04/10 07:47:18;;;;;;;2.47;2.08;;;;;;;15.16;100.00;102633.25;11286240;26;20006;-75
2024/04/10 07:52:18;;;;;;;2.35;1.58;;;;;;;14.43;100.00;102631.94;11286005;26;19995;-74
2024/04/10 07:57:19;;;;;;;3.28;2.15;;;;;;;13.87;100.00;102647.56;11285722;26;19986;-74
2024/04/10 08:02:19;;;;;;;3.17;1.73;;;;;;;15.18;100.00;102646.69;11284290;26;20001;-74
2024/04/10 08:07:20;;;;;;;11.48;3.35;;;;;;;15.51;100.00;102655.41;11285357;26;20067;-74
2024/04/10 08:12:20;;;;;;;22.98;2.78;;;;;;;14.67;100.00;102657.34;11285281;26;20023;-74
2024/04/10 08:17:20;;;;;;;10.00;2.85;;;;;;;15.05;100.00;102661.81;11283550;26;19991;-74
2024/04/10 08:22:21;;;;;;;4.70;2.22;;;;;;;15.98;100.00;102665.94;11284644;26;19991;-74
2024/04/10 08:27:22;;;;;;;6.35;2.78;;;;;;;17.69;100.00;102679.81;11285261;26;20001;-74
2024/04/10 08:32:22;;;;;;;28.10;2.75;;;;;;;18.84;100.00;102675.44;11285054;26;19995;-74
2024/04/10 08:37:22;;;;;;;11.20;2.17;;;;;;;20.09;100.00;102674.44;11283289;26;20344;-75
2024/04/10 08:42:23;;;;;;;9.48;2.63;;;;;;;20.69;100.00;102684.31;11285818;26;19994;-74
2024/04/10 08:47:23;;;;;;;4.45;2.28;;;;;;;19.17;98.34;102702.91;11283769;26;20002;-75
2024/04/10 08:52:25;;;;;;;6.68;2.40;;;;;;;19.16;100.00;102685.59;11285201;26;19995;-75
2024/04/10 08:57:25;;;;;;;13.43;3.28;;;;;;;18.92;100.00;102703.56;11253047;26;20110;-75
2024/04/10 09:02:25;;;;;;;4.50;2.22;;;;;;;18.16;100.00;102711.94;11285000;26;19995;-75
2024/04/10 09:07:26;;;;;;;8.95;2.17;;;;;;;18.07;100.00;102708.53;11284264;26;20103;-75
2024/04/10 09:12:26;;;;;;;3.42;1.83;;;;;;;19.28;100.00;102716.88;11284267;26;20006;-74
2024/04/10 09:17:27;;;;;;;8.45;2.50;;;;;;;19.78;87.57;102726.56;11282100;26;20341;-75
2024/04/10 09:22:27;;;;;;;4.82;2.58;;;;;;;20.48;85.52;102722.06;11284691;26;19995;-74
2024/04/10 09:27:29;;;;;;;4.57;3.00;;;;;;;20.56;75.84;102724.63;11283761;26;20027;-75
2024/04/10 09:32:30;;;;;;;8.43;2.15;;;;;;;20.69;91.55;102731.13;11281194;26;20002;-74
2024/04/10 09:37:31;;;;;;;3.05;1.63;;;;;;;20.69;92.21;102725.63;11282681;26;20002;-75
2024/04/10 09:42:31;;;;;;;4.07;2.38;;;;;;;20.81;78.08;102737.63;11251831;26;19998;-75
2024/04/10 09:47:36;;;;;;;3.65;1.70;;;;;;;20.70;72.42;102730.88;11251950;26;20006;-75
2024/04/10 09:52:36;;;;;;;1.88;1.75;;;;;;;20.65;78.08;102748.09;11280946;26;20010;-75
2024/04/10 09:57:37;;;;;;;1.45;1.30;;;;;;;20.53;66.57;102744.31;11283288;26;19999;-74
2024/04/10 10:02:38;;;;;;;2.22;1.80;;;;;;;20.52;71.06;102753.66;11280940;26;20027;-75
2024/04/10 10:07:39;;;;;;;2.92;1.83;;;;;;;21.07;70.94;102753.97;11279899;26;20006;-75
2024/04/10 10:12:39;;;;;;;6.03;2.00;;;;;;;21.11;65.23;102754.34;11280279;26;20010;-75
2024/04/10 10:17:40;;;;;;;12.35;2.28;;;;;;;21.40;67.62;102738.25;11281787;26;20026;-74
2024/04/10 10:22:41;;;;;;;1.75;1.65;;;;;;;21.83;65.26;102763.09;11282616;26;19995;-75
2024/04/10 10:27:42;;;;;;;1.00;1.00;;;;;;;22.15;70.68;102762.97;11280417;26;20464;-74
2024/04/10 10:32:43;;;;;;;3.00;1.73;;;;;;;21.85;57.92;102771.97;11280348;26;20006;-75
2024/04/10 10:37:43;;;;;;;1.10;1.10;;;;;;;21.77;52.87;102769.53;11281653;26;20006;-75
2024/04/10 10:42:43;;;;;;;1.90;1.45;;;;;;;21.93;57.99;102768.94;11279708;26;19998;-74
2024/04/10 10:47:44;;;;;;;2.00;1.80;;;;;;;21.77;51.62;102786.06;11279985;26;20030;-75
2024/04/10 10:52:45;;;;;;;1.98;1.88;;;;;;;21.71;54.55;102782.31;11249435;26;20067;-75
2024/04/10 10:57:46;;;;;;;3.63;1.83;;;;;;;21.59;53.06;102779.44;11279235;26;19995;-75
2024/04/10 11:02:46;;;;;;;10.68;2.22;;;;;;;21.83;53.35;102780.50;11278086;26;19991;-75
2024/04/10 11:07:55;;;;;;;5.53;1.85;;;;;;;22.09;45.79;102775.78;11280650;26;19995;-75
2024/04/10 11:13:04;;;;;;;1.92;1.33;;;;;;;22.03;44.56;102779.44;11277790;26;19991;-75
2024/04/10 11:18:04;;;;;;;3.47;1.55;;;;;;;21.96;43.84;102774.00;11279104;26;20009;-75
2024/04/10 11:23:05;;;;;;;2.45;1.63;;;;;;;21.75;43.94;102768.91;11278986;26;20019;-75
2024/04/10 11:28:07;;;;;;;4.20;1.75;;;;;;;21.96;46.72;102765.72;11278724;26;19999;-75
2024/04/10 11:33:07;;;;;;;1.42;1.33;;;;;;;21.93;40.16;102768.09;11281474;26;19996;-74
2024/04/10 11:38:08;;;;;;;3.60;1.42;;;;;;;21.78;42.01;102773.97;11279164;26;20422;-75
2024/04/10 11:43:08;;;;;;;0.93;0.80;;;;;;;22.46;44.95;102761.97;11279462;26;20124;-75
2024/04/10 11:48:09;;;;;;;0.90;0.90;;;;;;;22.29;37.01;102772.81;11278326;26;20359;-74
2024/04/10 11:53:09;;;;;;;4.55;1.00;;;;;;;21.79;36.84;102775.63;11276114;26;19995;-75
2024/04/10 11:58:10;;;;;;;0.82;0.82;;;;;;;21.59;32.73;102779.44;11283760;26;20010;-74
2024/04/10 12:03:10;;;;;;;20.13;1.90;;;;;;;21.26;36.00;102782.44;11253903;26;20086;-75
2024/04/10 12:08:11;;;;;;;3.53;1.65;;;;;;;21.64;38.64;102791.72;11285928;26;19995;-75
2024/04/10 12:13:11;;;;;;;5.10;1.45;;;;;;;21.30;36.75;102775.41;11285960;26;20023;-74
2024/04/10 12:18:12;;;;;;;1.70;1.60;;;;;;;21.52;36.55;102778.66;11253820;26;20001;-74
2024/04/10 12:23:12;;;;;;;1.63;1.52;;;;;;;21.82;37.63;102780.69;11284710;26;20005;-74
2024/04/10 12:28:12;;;;;;;4.00;1.38;;;;;;;21.89;34.78;102775.13;11285667;26;20003;-75
2024/04/10 12:33:13;;;;;;;1.67;1.55;;;;;;;20.94;37.02;102770.59;11283214;26;19995;-75
2024/04/10 12:38:13;;;;;;;1.58;1.48;;;;;;;20.81;35.74;102777.00;11282546;26;19995;-74
2024/04/10 12:43:14;;;;;;;1.70;1.60;;;;;;;20.99;36.92;102770.75;11285305;26;20056;-74
2024/04/10 12:48:14;;;;;;;4.22;2.30;;;;;;;20.99;36.01;102776.25;11285187;26;19991;-75
2024/04/10 12:53:14;;;;;;;2.45;1.95;;;;;;;21.27;39.74;102780.53;11285239;26;20067;-74
2024/04/10 12:58:15;;;;;;;1.50;1.42;;;;;;;21.57;34.21;102778.81;11282302;26;20346;-74
2024/04/10 13:03:18;;;;;;;4.00;2.05;;;;;;;21.33;35.22;102783.22;11282560;26;20326;-75
2024/04/10 13:08:18;;;;;;;3.88;1.98;;;;;;;20.92;34.86;102778.22;11283629;26;20322;-74
2024/04/10 13:13:19;;;;;;;2.58;1.38;;;;;;;20.74;33.39;102787.22;11283381;26;20050;-74
2024/04/10 13:18:19;;;;;;;2.20;1.48;;;;;;;20.32;35.46;102788.63;11283166;26;19995;-74
2024/04/10 13:23:20;;;;;;;1.85;1.08;;;;;;;20.57;36.29;102786.03;11281201;26;20104;-74
2024/04/10 13:28:20;;;;;;;6.00;2.08;;;;;;;20.58;33.24;102791.31;11283294;26;20056;-74
2024/04/10 13:33:21;;;;;;;1.30;1.20;;;;;;;20.10;33.20;102791.66;11283094;26;20030;-74
2024/04/10 13:38:22;;;;;;;1.17;1.10;;;;;;;19.69;34.16;102787.28;11283237;26;20032;-74
2024/04/10 13:43:22;;;;;;;3.70;2.10;;;;;;;19.56;36.28;102795.50;11281386;26;20039;-74
2024/04/10 13:48:23;;;;;;;10.25;1.23;;;;;;;19.90;33.00;102779.84;11283543;26;20087;-74
2024/04/10 13:53:24;;;;;;;3.97;1.05;;;;;;;19.42;34.85;102791.03;11282270;26;20075;-74
2024/04/10 13:58:24;;;;;;;1.55;1.10;;;;;;;19.51;37.05;102773.28;11280627;26;20001;-74
2024/04/10 14:03:25;;;;;;;2.40;1.67;;;;;;;19.47;37.40;102777.53;11280515;26;19994;-74
2024/04/10 14:08:26;;;;;;;4.78;1.75;;;;;;;19.78;36.04;102782.38;11280437;26;20411;-74
2024/04/10 14:13:26;;;;;;;2.78;1.25;;;;;;;20.11;36.47;102768.59;11280799;26;20315;-74
2024/04/10 14:18:27;;;;;;;1.98;1.83;;;;;;;19.57;36.49;102769.69;11248624;26;19991;-74
2024/04/10 14:23:28;;;;;;;3.80;1.52;;;;;;;19.78;35.07;102768.63;11282260;26;20002;-74
2024/04/10 14:28:29;;;;;;;7.97;1.73;;;;;;;19.14;35.77;102769.25;11280619;26;20007;-74
2024/04/10 14:33:30;;;;;;;1.80;1.15;;;;;;;19.42;37.88;102756.16;11250237;26;20466;-73
2024/04/10 14:38:30;;;;;;;1.83;1.05;;;;;;;19.13;34.31;102767.56;11278778;26;20306;-74
2024/04/10 14:43:32;;;;;;;1.33;1.17;;;;;;;18.27;36.96;102766.19;11280779;26;20010;-74
2024/04/10 14:49:54;;;;;;;6.53;2.08;;;;;;;17.99;36.18;102765.41;11311419;26;20094;-74
2024/04/10 14:54:54;;;;;;;1.00;1.00;;;;;;;17.10;39.18;102760.44;11236755;26;20007;-74
2024/04/10 14:59:55;;;;;;;3.40;1.50;;;;;;;16.54;41.33;102766.53;11237475;26;20068;-74
2024/04/10 15:04:56;;;;;;;5.10;2.53;;;;;;;16.26;43.00;102763.66;11208454;26;20000;-74
2024/04/10 15:09:56;;;;;;;3.15;2.72;;;;;;;15.90;44.11;102758.94;11240259;26;20032;-74
2024/04/10 15:14:56;;;;;;;5.43;2.00;;;;;;;15.48;45.56;102754.91;11238713;26;19999;-74
2024/04/10 15:19:57;;;;;;;6.43;2.67;;;;;;;15.09;46.56;102746.84;11236718;26;20408;-73
2024/04/10 15:24:57;;;;;;;2.10;1.77;;;;;;;14.87;48.04;102752.16;11238709;26;20038;-74
2024/04/10 15:29:58;;;;;;;1.85;1.75;;;;;;;14.72;49.22;102737.59;11237926;26;20011;-74
2024/04/10 15:34:58;;;;;;;10.75;2.72;;;;;;;14.89;50.07;102744.63;11237938;26;20054;-74
2024/04/10 15:39:59;;;;;;;10.27;3.40;;;;;;;14.81;50.25;102741.97;11236946;26;20007;-74
2024/04/10 15:44:59;;;;;;;8.15;2.28;;;;;;;15.00;50.74;102729.72;11237894;26;19999;-74
2024/04/10 15:49:59;;;;;;;3.75;2.40;;;;;;;15.13;51.07;102731.84;11234009;26;20031;-74
2024/04/10 15:55:00;;;;;;;10.45;1.92;;;;;;;15.10;51.56;102727.59;11236822;26;19999;-74
2024/04/10 16:00:00;;;;;;;9.32;2.72;;;;;;;14.99;51.29;102738.91;11210465;26;20495;-73
2024/04/10 16:05:00;;;;;;;8.25;2.45;;;;;;;14.69;51.83;102728.94;11205184;26;19996;-73
2024/04/10 16:10:01;;;;;;;6.05;1.98;;;;;;;14.64;52.06;102735.78;11204651;26;20427;-74
2024/04/10 16:15:01;;;;;;;4.68;1.70;;;;;;;14.37;52.59;102736.22;11205853;26;20394;-74
2024/04/10 16:20:03;;;;;;;3.85;1.70;;;;;;;14.12;53.44;102736.31;11202979;26;19995;-73
2024/04/10 16:25:04;;;;;;;10.85;2.28;;;;;;;14.01;54.25;102742.16;11205172;26;20005;-73
2024/04/10 16:30:06;;;;;;;10.52;1.50;;;;;;;14.13;54.44;102757.06;11205000;26;20431;-73
2024/04/10 16:35:06;;;;;;;3.08;1.83;;;;;;;14.13;55.35;102748.91;11204755;26;20007;-74
2024/04/10 16:40:09;;;;;;;7.65;2.85;;;;;;;14.50;55.71;102741.09;11202756;26;20436;-74
2024/04/10 16:45:10;;;;;;;9.75;2.17;;;;;;;14.48;55.30;102735.81;11204262;26;20006;-73
2024/04/10 16:50:10;;;;;;;6.25;1.88;;;;;;;14.57;55.53;102732.03;11203263;26;20000;-73
2024/04/10 16:55:10;;;;;;;3.92;1.70;;;;;;;14.59;55.83;102743.63;11202234;26;20040;-72
2024/04/10 17:00:11;;;;;;;7.65;2.03;;;;;;;14.62;56.45;102748.72;11204667;26;20080;-73
2024/04/10 17:05:12;;;;;;;15.95;3.40;;;;;;;14.88;56.56;102742.09;11204167;26;20335;-74
2024/04/10 17:10:13;;;;;;;4.80;2.42;;;;;;;15.06;57.27;102733.59;11200988;26;20344;-74
2024/04/10 17:15:13;;;;;;;2.15;1.77;;;;;;;14.96;59.00;102743.91;11200944;26;19999;-74
2024/04/10 17:25:33;;;;;;;8.00;2.38;;;;;;;14.61;61.16;102740.72;11202508;26;20464;-73
2024/04/10 17:30:33;;;;;;;17.52;4.28;;;;;;;14.44;63.94;102693.59;11200607;26;20007;-73
2024/04/10 17:35:33;;;;;;;12.85;2.13;;;;;;;14.42;64.38;102701.97;11200456;26;20040;-73
2024/04/10 17:40:34;;;;;;;2.60;2.13;;;;;;;14.36;65.94;102705.41;11202180;26;20043;-74
2024/04/10 17:45:35;;;;;;;10.63;3.47;;;;;;;14.28;65.48;102708.16;11202781;26;20014;-73
2024/04/10 17:50:36;;;;;;;10.10;3.50;;;;;;;13.99;69.35;102697.91;11201184;26;20000;-73
2024/04/10 17:55:37;;;;;;;5.35;2.13;;;;;;;13.75;70.63;102697.97;11201573;26;20010;-73
2024/04/10 18:00:37;;;;;;;14.80;3.35;;;;;;;13.61;71.64;102700.38;11203468;26;20315;-73
2024/04/10 18:05:38;;;;;;;8.70;3.25;;;;;;;13.55;75.01;102717.41;11173272;26;20070;-73
2024/04/10 18:10:38;;;;;;;8.73;2.63;;;;;;;13.59;75.08;102716.06;11206361;26;20003;-73
2024/04/10 18:15:39;;;;;;;6.93;2.63;;;;;;;13.42;80.43;102722.53;11173338;26;20043;-73
2024/04/10 18:20:39;;;;;;;4.55;2.75;;;;;;;13.28;84.30;102725.97;11203257;26;20014;-73
2024/04/10 18:25:39;;;;;;;4.57;2.75;;;;;;;13.13;86.58;102714.88;11204087;26;20465;-73
2024/04/10 18:30:40;;;;;;;7.40;3.35;;;;;;;12.87;89.69;102696.00;11200754;26;20015;-73
2024/04/10 18:35:40;;;;;;;13.07;3.47;;;;;;;12.67;94.39;102703.63;11203750;26;20073;-72
2024/04/10 18:40:40;;;;;;;12.20;3.55;;;;;;;12.45;97.77;102699.66;10966376;26;20119;-74
2024/04/10 18:45:41;;;;;;;19.90;2.75;;;;;;;12.26;100.00;102711.66;11107020;26;20019;-73
2024/04/10 18:50:41;;;;;;;7.32;3.88;;;;;;;12.12;99.39;102713.13;11067507;26;20001;-73
2024/04/10 18:55:58;;;;;;;7.80;2.47;;;;;;;12.03;100.00;102723.13;11128631;26;20448;-72
2024/04/10 19:00:59;;;;;;;8.82;4.10;;;;;;;11.93;100.00;102727.78;11062598;26;20008;-72
2024/04/10 19:06:08;;;;;;;14.18;3.22;;;;;;;12.05;100.00;102718.34;11053299;26;20537;-72
2024/04/10 19:11:08;;;;;;;15.77;2.85;;;;;;;12.00;100.00;102726.16;11052321;26;20006;-72
2024/04/10 19:16:09;;;;;;;8.40;2.83;;;;;;;12.12;100.00;102732.13;11054054;26;20333;-73
2024/04/10 19:21:09;;;;;;;13.23;2.63;;;;;;;12.22;100.00;102732.00;11053568;26;20140;-72
2024/04/10 19:26:11;;;;;;;4.55;2.55;;;;;;;12.25;100.00;102724.41;11052355;26;20005;-72
2024/04/10 19:31:12;;;;;;;12.07;3.72;;;;;;;12.31;100.00;102728.31;11080901;26;20009;-72
2024/04/10 19:36:13;;;;;;;16.38;3.45;;;;;;;12.30;100.00;102726.63;11073881;26;20349;-73
2024/04/10 19:41:15;;;;;;;4.35;2.92;;;;;;;12.22;100.00;102732.00;11102719;26;20004;-72
2024/04/10 19:46:16;;;;;;;6.20;3.55;;;;;;;12.07;100.00;102726.34;11131724;26;20004;-72
2024/04/10 19:51:16;;;;;;;12.45;3.20;;;;;;;12.04;100.00;102729.41;11130874;26;20087;-73
2024/04/10 19:56:16;;;;;;;5.50;2.25;;;;;;;12.02;100.00;102728.69;11131451;26;20018;-72
2024/04/10 20:01:17;;;;;;;15.90;4.72;;;;;;;12.10;100.00;102726.03;11129820;26;20016;-74
2024/04/10 20:06:17;;;;;;;12.80;3.35;;;;;;;12.14;100.00;102730.13;11099773;26;20004;-73
2024/04/10 20:11:17;;;;;;;10.73;2.83;;;;;;;12.31;100.00;102723.72;11131294;26;20062;-73
2024/04/10 20:16:19;;;;;;;13.77;3.47;;;;;;;12.43;100.00;102713.41;11132285;26;20151;-73
2024/04/10 20:21:19;;;;;;;11.52;3.40;;;;;;;12.31;100.00;102703.84;11067025;26;20451;-73
2024/04/10 20:26:20;;;;;;;9.68;3.42;;;;;;;12.05;100.00;102687.63;11058648;26;20001;-73
2024/04/10 20:31:20;;;;;;;8.38;3.67;;;;;;;12.10;100.00;102699.72;11057318;26;20000;-72
2024/04/10 20:36:20;;;;;;;10.90;3.17;;;;;;;12.22;100.00;102700.28;11051445;26;20017;-73
2024/04/10 20:41:21;;;;;;;9.07;2.67;;;;;;;12.40;100.00;102699.31;11101318;26;20023;-72
2024/04/10 20:46:21;;;;;;;10.60;1.95;;;;;;;12.51;100.00;102702.56;11070224;26;20625;-73
2024/04/10 20:51:22;;;;;;;11.23;4.90;;;;;;;12.63;100.00;102694.94;11075589;26;20015;-73
2024/04/10 20:56:22;;;;;;;7.45;2.47;;;;;;;12.73;100.00;102684.78;11127842;26;20085;-74
2024/04/10 21:01:23;;;;;;;6.18;2.88;;;;;;;12.73;100.00;102678.47;11130352;26;20008;-73
2024/04/10 22:14:54;;;;;;;1.67;1.55;;;;;;;12.84;91.91;102672.72;11135279;26;20357;-73
2024/04/10 22:25:14;;;;;;;3.92;2.78;;;;;;;12.93;93.01;102679.00;11129908;26;20000;-73
2024/04/10 22:30:15;;;;;;;10.80;2.30;;;;;;;12.96;92.94;102678.69;11129342;26;20554;-73
2024/04/10 22:35:15;;;;;;;4.95;1.83;;;;;;;12.91;94.03;102665.56;11127935;26;20047;-74
2024/04/10 22:40:17;;;;;;;11.52;2.55;;;;;;;12.92;93.95;102645.53;11125831;26;20022;-73
2024/04/10 22:45:17;;;;;;;6.55;3.17;;;;;;;12.94;93.12;102639.91;11127239;26;20549;-74
2024/04/10 22:50:17;;;;;;;11.75;2.58;;;;;;;12.84;93.36;102652.84;11095691;26;20008;-74
2024/04/10 22:55:18;;;;;;;6.53;2.13;;;;;;;12.78;95.02;102671.50;11127539;26;20015;-74
2024/04/10 23:00:19;;;;;;;8.88;3.40;;;;;;;12.82;94.43;102671.19;11127689;26;20000;-73
2024/04/10 23:05:19;;;;;;;13.07;2.38;;;;;;;12.89;93.89;102667.63;11127301;26;20019;-74
2024/04/10 23:10:19;;;;;;;13.45;2.63;;;;;;;12.96;93.83;102667.81;11132812;26;20059;-73
2024/04/10 23:15:20;;;;;;;19.30;2.80;;;;;;;12.94;93.69;102667.09;11132316;26;20036;-74
2024/04/10 23:20:20;;;;;;;17.13;3.28;;;;;;;12.89;93.30;102669.47;11130769;26;20008;-74
2024/04/10 23:25:21;;;;;;;6.07;1.88;;;;;;;12.99;92.62;102659.31;11133224;26;20004;-73
2024/04/10 23:30:21;;;;;;;7.82;2.75;;;;;;;12.95;92.03;102668.78;11131307;26;20243;-73
2024/04/10 23:35:22;;;;;;;7.43;2.22;;;;;;;13.00;91.26;102652.84;11133009;26;20004;-73
2024/04/10 23:40:23;;;;;;;4.78;1.17;;;;;;;12.94;91.37;102656.22;11134250;26;20032;-76
2024/04/10 23:45:23;;;;;;;8.00;2.67;;;;;;;12.99;91.47;102662.03;11131045;26;20039;-73
2024/04/10 23:50:24;;;;;;;5.13;2.15;;;;;;;13.03;91.47;102668.81;11130317;26;20390;-74
2024/04/10 23:55:24;;;;;;;5.95;1.90;;;;;;;12.97;92.11;102681.22;11130866;26;20155;-73
